createdAt,value
2023-03-26T00:00:19.556Z,2.60
2023-03-26T00:02:50.187Z,2.60
2023-03-26T00:05:41.593Z,2.10
2023-03-26T00:08:22.137Z,2.20
2023-03-26T00:10:52.708Z,2.40
2023-03-26T00:13:44.112Z,2.20
2023-03-26T00:16:20.791Z,2.60
2023-03-26T00:19:04.080Z,2.50
2023-03-26T00:21:34.550Z,2.40
2023-03-26T00:24:16.189Z,2.40
2023-03-26T00:26:53.354Z,3.30
2023-03-26T00:29:24.966Z,2.70
2023-03-26T00:31:58.484Z,2.20
2023-03-26T00:34:36.012Z,1.90
2023-03-26T00:37:09.351Z,2.10
2023-03-26T00:39:50.027Z,2.10
2023-03-26T00:42:21.007Z,2.60
2023-03-26T00:44:57.730Z,2.40
2023-03-26T00:47:30.003Z,2.20
2023-03-26T00:50:00.647Z,2.30
2023-03-26T00:52:41.003Z,2.00
2023-03-26T00:55:12.389Z,2.40
2023-03-26T01:00:39.801Z,2.60
2023-03-26T01:03:26.902Z,3.30
2023-03-26T01:06:04.859Z,2.40
2023-03-26T01:08:52.888Z,2.60
2023-03-26T01:11:44.159Z,2.50
2023-03-26T01:14:19.002Z,2.40
2023-03-26T01:16:53.551Z,2.30
2023-03-26T01:19:30.725Z,2.40
2023-03-26T01:22:05.178Z,3.20
2023-03-26T01:24:38.694Z,2.40
2023-03-26T01:27:38.996Z,2.30
2023-03-26T01:30:26.584Z,2.10
2023-03-26T01:33:13.952Z,2.10
2023-03-26T01:36:10.451Z,2.80
2023-03-26T01:38:48.315Z,3.30
2023-03-26T01:41:33.172Z,2.70
2023-03-26T01:44:12.207Z,2.40
2023-03-26T01:46:44.008Z,2.40
2023-03-26T01:49:35.030Z,2.70
2023-03-26T01:52:14.036Z,2.30
2023-03-26T01:54:46.755Z,2.90
2023-03-26T01:57:28.548Z,2.20
2023-03-26T02:02:59.059Z,1.90
2023-03-26T02:05:34.151Z,2.50
2023-03-26T02:08:12.024Z,2.60
2023-03-26T02:10:59.203Z,2.40
2023-03-26T02:13:32.271Z,2.20
2023-03-26T02:16:11.702Z,2.60
2023-03-26T02:19:02.616Z,2.30
2023-03-26T02:21:42.525Z,2.30
2023-03-26T02:24:16.299Z,2.30
2023-03-26T02:26:50.048Z,2.40
2023-03-26T02:29:23.733Z,2.90
2023-03-26T02:32:02.339Z,2.50
2023-03-26T02:34:36.887Z,2.40
2023-03-26T02:37:07.961Z,2.40
2023-03-26T02:42:16.471Z,3.20
2023-03-26T02:44:51.164Z,2.40
2023-03-26T02:47:43.300Z,2.80
2023-03-26T02:50:37.211Z,2.10
2023-03-26T02:53:43.063Z,2.20
2023-03-26T02:56:45.824Z,2.90
2023-03-26T02:59:27.132Z,2.50
2023-03-26T03:04:47.734Z,2.10
2023-03-26T03:07:20.548Z,2.30
2023-03-26T03:09:51.490Z,2.50
2023-03-26T03:12:41.105Z,2.60
2023-03-26T03:15:15.365Z,2.30
2023-03-26T03:17:56.168Z,2.40
2023-03-26T03:23:09.528Z,2.20
2023-03-26T03:25:52.724Z,2.20
2023-03-26T03:28:33.475Z,2.40
2023-03-26T03:31:18.408Z,2.30
2023-03-26T03:33:51.719Z,1.90
2023-03-26T03:36:42.491Z,2.40
2023-03-26T03:39:22.948Z,2.50
2023-03-26T03:41:56.480Z,2.20
2023-03-26T03:44:47.378Z,3.10
2023-03-26T03:47:44.793Z,2.60
2023-03-26T03:50:19.111Z,2.20
2023-03-26T03:53:01.259Z,2.50
2023-03-26T03:55:32.191Z,2.30
2023-03-26T03:58:03.842Z,3.00
2023-03-26T04:00:41.755Z,2.70
2023-03-26T04:03:39.374Z,2.70
2023-03-26T04:06:14.392Z,2.70
2023-03-26T04:08:45.297Z,2.40
2023-03-26T04:11:26.017Z,2.40
2023-03-26T04:14:25.836Z,2.40
2023-03-26T04:17:26.915Z,2.70
2023-03-26T04:20:10.666Z,2.40
2023-03-26T04:22:56.331Z,3.00
2023-03-26T04:25:30.567Z,3.10
2023-03-26T04:28:31.453Z,1.80
2023-03-26T04:31:24.442Z,2.30
2023-03-26T04:34:24.440Z,3.00
2023-03-26T04:37:27.691Z,2.70
2023-03-26T04:40:21.143Z,2.50
2023-03-26T04:43:13.103Z,2.70
2023-03-26T04:46:12.312Z,2.50
2023-03-26T04:49:02.094Z,2.20
2023-03-26T04:51:39.497Z,2.60
2023-03-26T04:54:21.719Z,2.60
2023-03-26T04:57:02.986Z,2.90
2023-03-26T04:59:45.665Z,1.90
2023-03-26T05:02:37.579Z,2.60
2023-03-26T05:05:09.551Z,2.20
2023-03-26T05:07:43.405Z,2.70
2023-03-26T05:10:17.157Z,2.70
2023-03-26T05:12:54.854Z,2.50
2023-03-26T05:15:36.841Z,2.70
2023-03-26T05:18:33.435Z,2.50
2023-03-26T05:21:14.853Z,2.60
2023-03-26T05:23:48.046Z,2.70
2023-03-26T05:26:27.425Z,2.50
2023-03-26T05:28:58.318Z,2.80
2023-03-26T05:31:49.754Z,2.70
2023-03-26T05:34:26.338Z,2.10
2023-03-26T05:36:57.572Z,2.30
2023-03-26T05:40:04.341Z,2.40
2023-03-26T05:42:57.037Z,2.80
2023-03-26T05:45:49.912Z,2.20
2023-03-26T05:48:26.725Z,2.90
2023-03-26T05:50:59.422Z,2.70
2023-03-26T05:53:32.881Z,2.70
2023-03-26T05:56:22.366Z,2.70
2023-03-26T05:59:16.851Z,2.60
2023-03-26T06:02:13.109Z,3.00
2023-03-26T06:04:54.414Z,3.00
2023-03-26T06:08:00.853Z,3.00
2023-03-26T06:10:41.019Z,3.10
2023-03-26T06:13:17.402Z,2.80
2023-03-26T06:15:49.338Z,3.10
2023-03-26T06:18:40.601Z,2.90
2023-03-26T06:21:46.198Z,2.60
2023-03-26T06:24:25.443Z,2.40
2023-03-26T06:27:25.303Z,2.70
2023-03-26T06:30:17.243Z,3.00
2023-03-26T06:33:11.098Z,2.80
2023-03-26T06:36:14.847Z,3.10
2023-03-26T06:38:45.581Z,2.80
2023-03-26T06:44:43.057Z,3.00
2023-03-26T06:50:39.860Z,2.70
2023-03-26T06:53:36.618Z,3.30
2023-03-26T06:57:18.193Z,2.80
2023-03-26T06:59:44.215Z,2.30
2023-03-26T07:02:33.429Z,2.50
2023-03-26T07:05:22.694Z,3.00
2023-03-26T07:08:12.425Z,3.30
2023-03-26T07:11:01.668Z,2.60
2023-03-26T07:13:56.366Z,2.60
2023-03-26T07:16:45.814Z,2.90
2023-03-26T07:19:45.353Z,2.90
2023-03-26T07:22:28.288Z,3.10
2023-03-26T07:25:17.913Z,2.90
2023-03-26T07:28:14.386Z,2.40
2023-03-26T07:31:16.818Z,2.60
2023-03-26T07:34:32.580Z,3.10
2023-03-26T07:37:34.197Z,2.20
2023-03-26T07:40:45.774Z,3.00
2023-03-26T07:44:08.948Z,2.30
2023-03-26T07:47:04.746Z,2.50
2023-03-26T07:49:50.158Z,2.70
2023-03-26T07:52:29.403Z,2.80
2023-03-26T07:55:13.492Z,3.10
2023-03-26T07:58:23.709Z,2.40
2023-03-26T08:01:39.227Z,3.00
2023-03-26T08:04:40.641Z,3.00
2023-03-26T08:07:41.327Z,2.50
2023-03-26T08:11:00.120Z,2.20
2023-03-26T08:13:45.581Z,2.60
2023-03-26T08:16:32.581Z,2.70
2023-03-26T08:19:34.202Z,2.70
2023-03-26T08:22:20.751Z,3.20
2023-03-26T08:25:29.707Z,4.10
2023-03-26T08:28:29.165Z,3.90
2023-03-26T08:31:25.497Z,4.50
2023-03-26T08:34:16.562Z,3.70
2023-03-26T08:37:07.873Z,3.20
2023-03-26T08:39:58.842Z,3.90
2023-03-26T08:43:10.564Z,3.60
2023-03-26T08:46:26.544Z,3.80
2023-03-26T08:49:16.947Z,3.30
2023-03-26T08:52:35.696Z,4.20
2023-03-26T08:55:41.943Z,3.60
2023-03-26T08:58:59.201Z,3.20
2023-03-26T09:02:18.338Z,2.70
2023-03-26T09:05:27.442Z,3.20
2023-03-26T09:08:54.505Z,2.10
2023-03-26T09:12:13.102Z,1.90
2023-03-26T09:15:27.508Z,1.80
2023-03-26T09:18:45.937Z,2.10
2023-03-26T09:22:05.479Z,2.80
2023-03-26T09:25:26.274Z,2.30
2023-03-26T09:28:51.890Z,2.10
2023-03-26T09:32:04.814Z,2.20
2023-03-26T09:35:14.528Z,2.40
2023-03-26T09:38:21.134Z,2.20
2023-03-26T09:41:17.955Z,2.50
2023-03-26T09:44:25.974Z,3.10
2023-03-26T09:47:22.267Z,2.10
2023-03-26T09:50:10.777Z,1.80
2023-03-26T09:53:13.973Z,2.20
2023-03-26T09:55:57.739Z,2.60
2023-03-26T09:59:24.673Z,2.80
2023-03-26T10:02:05.630Z,2.10
2023-03-26T10:05:21.694Z,2.40
2023-03-26T10:08:21.944Z,1.90
2023-03-26T10:11:21.985Z,2.30
2023-03-26T10:14:07.325Z,3.40
2023-03-26T10:16:51.456Z,2.50
2023-03-26T10:19:46.622Z,2.10
2023-03-26T10:22:36.093Z,2.20
2023-03-26T10:25:36.275Z,2.50
2023-03-26T10:28:29.285Z,2.50
2023-03-26T10:31:51.613Z,3.50
2023-03-26T10:34:47.188Z,2.80
2023-03-26T10:37:27.634Z,2.40
2023-03-26T10:40:24.523Z,2.40
2023-03-26T10:43:19.809Z,2.90
2023-03-26T10:46:15.341Z,3.00
2023-03-26T10:49:26.614Z,3.20
2023-03-26T10:52:10.754Z,2.70
2023-03-26T10:54:57.400Z,3.30
2023-03-26T10:57:38.249Z,2.60
2023-03-26T11:00:25.471Z,4.20
2023-03-26T11:03:54.563Z,3.70
2023-03-26T11:06:38.907Z,3.60
2023-03-26T11:09:23.662Z,3.80
2023-03-26T11:12:26.977Z,3.40
2023-03-26T11:15:23.894Z,3.70
2023-03-26T11:18:07.944Z,4.30
2023-03-26T11:20:46.123Z,4.20
2023-03-26T11:23:32.813Z,3.70
2023-03-26T11:26:14.075Z,3.70
2023-03-26T11:29:31.230Z,3.60
2023-03-26T11:32:04.365Z,3.80
2023-03-26T11:34:39.629Z,3.40
2023-03-26T11:37:21.692Z,3.40
2023-03-26T11:39:56.572Z,3.40
2023-03-26T11:42:29.957Z,2.90
2023-03-26T11:45:04.415Z,3.70
2023-03-26T11:47:43.123Z,3.20
2023-03-26T11:50:21.603Z,3.20
2023-03-26T11:52:53.048Z,3.00
2023-03-26T11:55:28.649Z,2.60
2023-03-26T11:58:27.952Z,2.30
2023-03-26T12:00:59.201Z,2.00
2023-03-26T12:03:32.011Z,2.20
2023-03-26T12:06:03.810Z,2.50
2023-03-26T12:08:40.248Z,2.60
2023-03-26T12:11:33.232Z,2.20
2023-03-26T12:14:06.867Z,2.30
2023-03-26T12:16:37.801Z,2.00
2023-03-26T12:19:20.154Z,2.20
2023-03-26T12:22:01.958Z,1.90
2023-03-26T12:24:34.315Z,1.70
2023-03-26T12:27:28.371Z,2.00
2023-03-26T12:30:10.428Z,1.80
2023-03-26T12:32:46.834Z,1.70
2023-03-26T12:35:25.772Z,1.80
2023-03-26T12:37:58.749Z,2.00
2023-03-26T12:40:34.383Z,1.90
2023-03-26T12:44:54.712Z,2.10
2023-03-26T12:47:54.992Z,1.80
2023-03-26T12:48:55.122Z,1.70
2023-03-26T12:51:40.515Z,2.00
2023-03-26T12:54:23.847Z,1.60
2023-03-26T12:57:13.400Z,1.70
2023-03-26T12:59:57.201Z,2.30
2023-03-26T13:02:50.655Z,1.80
2023-03-26T13:05:43.289Z,1.80
2023-03-26T13:08:35.070Z,1.70
2023-03-26T13:11:18.596Z,2.00
2023-03-26T13:14:06.384Z,1.90
2023-03-26T13:16:55.363Z,1.70
2023-03-26T13:19:53.990Z,2.00
2023-03-26T13:22:48.345Z,1.50
2023-03-26T13:25:33.294Z,2.00
2023-03-26T13:28:20.196Z,1.90
2023-03-26T13:31:01.473Z,1.90
2023-03-26T13:36:23.826Z,1.90
2023-03-26T13:39:13.074Z,1.30
2023-03-26T13:42:00.994Z,1.40
2023-03-26T13:44:45.330Z,2.10
2023-03-26T13:47:19.765Z,1.90
2023-03-26T13:49:56.360Z,1.60
2023-03-26T13:55:21.041Z,1.40
2023-03-26T13:57:57.099Z,1.50
2023-03-26T14:00:32.698Z,1.30
2023-03-26T14:03:35.666Z,1.50
2023-03-26T14:06:14.532Z,1.50
2023-03-26T14:08:49.185Z,1.20
2023-03-26T14:11:32.915Z,1.70
2023-03-26T14:14:11.272Z,1.80
2023-03-26T14:16:48.103Z,2.50
2023-03-26T14:19:43.147Z,1.50
2023-03-26T14:22:27.293Z,1.60
2023-03-26T14:25:15.019Z,1.90
2023-03-26T14:28:02.764Z,2.00
2023-03-26T14:30:59.198Z,1.80
2023-03-26T14:34:02.389Z,2.00
2023-03-26T14:36:56.857Z,1.80
2023-03-26T14:39:50.939Z,1.70
2023-03-26T14:42:35.049Z,2.00
2023-03-26T14:45:39.166Z,3.00
2023-03-26T14:48:39.212Z,1.70
2023-03-26T14:51:20.617Z,2.20
2023-03-26T14:53:55.859Z,1.70
2023-03-26T14:56:44.800Z,1.50
2023-03-26T15:00:15.862Z,1.40
2023-03-26T15:03:19.387Z,2.30
2023-03-26T15:06:21.211Z,1.60
2023-03-26T15:09:30.303Z,1.30
2023-03-26T15:12:36.059Z,1.80
2023-03-26T15:15:31.920Z,1.50
2023-03-26T15:18:44.538Z,1.30
2023-03-26T15:21:44.388Z,1.10
2023-03-26T15:24:53.366Z,1.40
2023-03-26T15:27:58.522Z,1.50
2023-03-26T15:31:00.874Z,1.40
2023-03-26T15:33:57.172Z,1.20
2023-03-26T15:37:17.687Z,1.40
2023-03-26T15:40:20.928Z,1.60
2023-03-26T15:43:10.432Z,1.60
2023-03-26T15:45:44.961Z,1.60
2023-03-26T15:48:44.709Z,1.70
2023-03-26T15:51:47.002Z,1.30
2023-03-26T15:54:33.839Z,1.50
2023-03-26T15:57:17.106Z,1.00
2023-03-26T16:00:02.608Z,1.40
2023-03-26T16:02:53.793Z,1.30
2023-03-26T16:08:15.797Z,1.40
2023-03-26T16:10:52.917Z,1.10
2023-03-26T16:13:50.815Z,1.90
2023-03-26T16:16:26.085Z,1.70
2023-03-26T16:19:49.134Z,1.90
2023-03-26T16:22:43.432Z,2.40
2023-03-26T16:25:34.155Z,1.80
2023-03-26T16:28:22.615Z,1.70
2023-03-26T16:31:37.554Z,2.00
2023-03-26T16:34:31.458Z,2.00
2023-03-26T16:37:08.923Z,2.00
2023-03-26T16:39:45.151Z,2.50
2023-03-26T16:42:40.582Z,1.70
2023-03-26T16:45:22.801Z,2.20
2023-03-26T16:48:03.132Z,2.00
2023-03-26T16:50:48.655Z,1.40
2023-03-26T16:53:30.480Z,1.60
2023-03-26T16:56:26.271Z,2.10
2023-03-26T16:59:01.876Z,2.40
2023-03-26T17:01:48.367Z,2.20
2023-03-26T17:04:28.451Z,2.20
2023-03-26T17:07:17.423Z,1.80
2023-03-26T17:10:01.015Z,1.70
2023-03-26T17:12:41.586Z,1.50
2023-03-26T17:15:32.173Z,1.90
2023-03-26T17:18:22.937Z,1.60
2023-03-26T17:21:03.942Z,1.50
2023-03-26T17:23:58.239Z,1.90
2023-03-26T17:26:41.271Z,1.80
2023-03-26T17:29:31.520Z,1.90
2023-03-26T17:32:09.292Z,1.80
2023-03-26T17:35:02.186Z,1.50
2023-03-26T17:37:48.607Z,1.90
2023-03-26T17:40:53.078Z,1.90
2023-03-26T17:43:47.130Z,1.80
2023-03-26T17:46:33.125Z,1.80
2023-03-26T17:49:19.636Z,2.10
2023-03-26T17:51:58.418Z,1.70
2023-03-26T17:54:35.187Z,1.80
2023-03-26T17:57:13.461Z,2.20
2023-03-26T17:59:46.289Z,2.30
2023-03-26T18:02:21.773Z,2.60
2023-03-26T18:04:55.667Z,2.40
2023-03-26T18:08:02.054Z,2.50
2023-03-26T18:11:03.025Z,2.50
2023-03-26T18:13:57.428Z,2.00
2023-03-26T18:19:19.406Z,2.40
2023-03-26T18:22:08.019Z,2.30
2023-03-26T18:24:45.429Z,2.50
2023-03-26T18:27:22.175Z,3.00
2023-03-26T18:30:14.937Z,3.30
2023-03-26T18:33:05.892Z,3.00
2023-03-26T18:35:59.368Z,3.30
2023-03-26T18:38:42.436Z,3.00
2023-03-26T18:41:31.603Z,3.10
2023-03-26T18:44:06.658Z,3.00
2023-03-26T18:46:38.117Z,2.60
2023-03-26T18:49:12.865Z,2.70
2023-03-26T18:51:56.842Z,3.10
2023-03-26T18:54:39.125Z,2.60
2023-03-26T18:57:21.521Z,3.20
2023-03-26T18:59:57.062Z,2.50
2023-03-26T19:02:28.260Z,2.60
2023-03-26T19:07:41.246Z,2.80
2023-03-26T19:10:21.286Z,3.00
2023-03-26T19:13:01.380Z,2.90
2023-03-26T19:15:44.791Z,2.90
2023-03-26T19:18:23.173Z,3.00
2023-03-26T19:20:59.632Z,2.60
2023-03-26T19:23:34.564Z,2.70
2023-03-26T19:26:07.742Z,2.80
2023-03-26T19:28:41.494Z,2.80
2023-03-26T19:31:26.081Z,2.80
2023-03-26T19:34:03.129Z,3.30
2023-03-26T19:36:59.577Z,2.90
2023-03-26T19:39:44.535Z,3.20
2023-03-26T19:42:19.529Z,4.10
2023-03-26T19:44:51.373Z,3.40
2023-03-26T19:47:52.204Z,3.10
2023-03-26T19:50:31.131Z,3.20
2023-03-26T19:53:32.557Z,2.80
2023-03-26T19:56:13.505Z,2.90
2023-03-26T19:58:45.000Z,2.80
2023-03-26T20:01:19.750Z,2.70
2023-03-26T20:03:57.862Z,3.30
2023-03-26T20:06:42.676Z,2.80
2023-03-26T20:09:17.505Z,2.90
2023-03-26T20:11:59.309Z,2.70
2023-03-26T20:14:32.783Z,3.10
2023-03-26T20:17:11.101Z,2.80
2023-03-26T20:19:41.931Z,2.80
2023-03-26T20:22:20.118Z,2.90
2023-03-26T20:24:54.946Z,2.60
2023-03-26T20:27:27.571Z,2.50
2023-03-26T20:30:05.930Z,2.80
2023-03-26T20:33:12.402Z,3.10
2023-03-26T20:35:50.043Z,3.60
2023-03-26T20:38:39.189Z,3.50
2023-03-26T20:41:27.218Z,3.30
2023-03-26T20:44:15.682Z,3.50
2023-03-26T20:47:00.596Z,2.60
2023-03-26T20:49:38.049Z,3.20
2023-03-26T20:52:15.662Z,2.50
2023-03-26T20:55:01.714Z,3.10
2023-03-26T20:57:55.411Z,2.70
2023-03-26T21:00:28.420Z,3.10
2023-03-26T21:03:07.389Z,3.00
2023-03-26T21:05:48.859Z,2.30
2023-03-26T21:08:25.751Z,2.80
2023-03-26T21:11:03.665Z,2.80
2023-03-26T21:13:41.120Z,2.40
2023-03-26T21:16:24.082Z,2.60
2023-03-26T21:18:55.681Z,2.20
2023-03-26T21:24:47.051Z,1.80
2023-03-26T21:27:26.530Z,1.80
2023-03-26T21:30:00.030Z,2.40
2023-03-26T21:32:32.408Z,1.60
2023-03-26T21:35:06.928Z,1.80
2023-03-26T21:37:38.359Z,1.80
2023-03-26T21:42:51.226Z,1.50
2023-03-26T21:45:23.833Z,2.00
2023-03-26T21:50:35.467Z,1.60
2023-03-26T21:53:15.501Z,2.00
2023-03-26T21:56:06.261Z,2.20
2023-03-26T21:58:48.078Z,2.40
2023-03-26T22:01:37.107Z,2.20
2023-03-26T22:04:18.012Z,2.00
2023-03-26T22:07:04.356Z,2.30
2023-03-26T22:09:38.740Z,6.00
2023-03-26T22:12:25.653Z,3.10
2023-03-26T22:14:57.059Z,2.80
2023-03-26T22:17:32.762Z,2.40
2023-03-26T22:20:07.654Z,2.80
2023-03-26T22:22:49.762Z,2.70
2023-03-26T22:25:21.679Z,2.70
2023-03-26T22:27:53.977Z,3.60
2023-03-26T22:30:28.470Z,3.40
2023-03-26T22:32:59.808Z,3.10
2023-03-26T22:35:36.075Z,4.30
2023-03-26T22:38:09.687Z,4.80
2023-03-26T22:40:43.510Z,4.50
2023-03-26T22:43:24.552Z,4.30
2023-03-26T22:45:55.719Z,4.30
2023-03-26T22:48:28.990Z,4.00
2023-03-26T22:51:04.896Z,4.20
2023-03-26T22:53:46.343Z,4.30
2023-03-26T22:56:21.914Z,3.80
2023-03-26T22:58:54.920Z,2.90
2023-03-26T23:01:36.214Z,2.30
2023-03-26T23:04:09.418Z,2.40
2023-03-26T23:06:44.076Z,2.40
2023-03-26T23:09:17.220Z,2.00
2023-03-26T23:11:59.199Z,2.00
2023-03-26T23:14:32.398Z,2.00
2023-03-26T23:17:24.097Z,2.10
2023-03-26T23:19:57.915Z,1.80
2023-03-26T23:22:28.881Z,2.00
2023-03-26T23:24:59.649Z,2.40
2023-03-26T23:27:34.171Z,2.30
2023-03-26T23:30:11.872Z,2.00
2023-03-26T23:32:50.294Z,2.10
2023-03-26T23:35:30.934Z,2.60
2023-03-26T23:38:02.317Z,2.10
2023-03-26T23:40:44.009Z,2.00
2023-03-26T23:43:17.569Z,2.30
2023-03-26T23:45:49.096Z,2.50
2023-03-26T23:48:25.472Z,2.30
2023-03-26T23:51:03.378Z,2.10
2023-03-26T23:53:55.631Z,2.20
2023-03-26T23:56:27.825Z,2.40
2023-03-26T23:59:06.165Z,3.10
